Weather at Federal Border Guard No. 12 Helipad

Public forecast

Using degrees Celsius for public forecast. Weather courtesy of forecast.io.

Closest aviation weather report (METAR) to Federal Border Guard No. 12 Helipad

Closest report is Hatay Airport, 19.3 nm (35.7 km) SW.

2024/04/24 11:50 (retrieved 1 hour ago)

LTDA 241150Z VRB02KT CAVOK 35/09 Q1012 NOSIG

Closest aviation forecast (TAF) to Federal Border Guard No. 12 Helipad

Forecast is more than 6 hours old.

Closest forecast is Aleppo International Airport, 39.2 nm (72.7 km) SE.

2024/04/24 06:00 (retrieved 7 hours ago)

TAF OSAP 240445Z 2406/2506 12008KT 9999 FEW030 BECMG 2414/2416 VRB03KT CAVOK